»·PEaware :: N630AJ KBOI-KYKM

N630AJ :: KBOI-KYKM

FLIGHT INFORMATION

Flight Status: Arrived
Operator: Privately registered:
United States
More flights under this callsign
Pilot: David J. (16724)
Aircraft: Unknown
(EPIC)
More flights by this aircraft type
Origin: KBOI Boise Air Terminal/Gowen
United States
Destination: KYKM Yakima Air Term/Mcallister
United States
More flights between these airports :: More routes between these airports
Route: BOI3 BOI V4 YKM
File this flight plan on PilotEdge
Remarks:
Altitude:
(Current/Filed)
20,000ft
Speed:
(Current/Filed)
300kts
Departed: 20-Jun-18 01:11 PM
Arrived: 20-Jun-18 02:16 PM
Distance/Time
Traveled:
257nm/1:05
Distance/Time
To Go:
Arrived

Flight Plot

Page will automatically refresh every two minutes.

Flight plan parsing failed; only flown route is shown


Map Options




Map Legend


Flown Route
Filed Route
Departure Airport
Arrival Airport
Navaid (VOR, NDB)
Fix

Horizontal Profiles

Position Reports

Time Latitude Longitude Heading Altitude Ground
Speed
20-Jun-18 12:27 43.562159 -116.205901 270 2875ft 0kts
20-Jun-18 12:28 43.562159 -116.205901 270 2875ft 0kts
20-Jun-18 12:29 43.562159 -116.205901 270 2875ft 0kts
20-Jun-18 12:30 43.562159 -116.205901 270 2875ft 0kts
20-Jun-18 12:31 43.562159 -116.205901 270 2875ft 0kts
20-Jun-18 12:32 43.562159 -116.205901 270 2875ft 0kts
20-Jun-18 12:33 43.562159 -116.205901 270 2875ft 0kts
20-Jun-18 12:34 43.562159 -116.205901 270 2875ft 0kts
20-Jun-18 12:35 43.562159 -116.205901 270 2875ft 0kts
20-Jun-18 12:36 43.562159 -116.205901 270 2875ft 0kts
20-Jun-18 12:37 43.562159 -116.205901 270 2875ft 0kts
20-Jun-18 12:38 43.562159 -116.205901 270 2875ft 0kts
20-Jun-18 12:39 43.562159 -116.205901 270 2875ft 0kts
20-Jun-18 12:40 43.562159 -116.205901 270 2875ft 0kts
20-Jun-18 12:41 43.562159 -116.205901 270 2875ft 0kts
20-Jun-18 12:42 43.562159 -116.205901 270 2875ft 0kts
20-Jun-18 12:43 43.562159 -116.205901 270 2875ft 0kts
20-Jun-18 12:44 43.562159 -116.205901 270 2875ft 0kts
20-Jun-18 12:45 43.562159 -116.205902 269 2875ft 0kts
20-Jun-18 12:46 43.562159 -116.205902 269 2875ft 0kts
20-Jun-18 12:47 43.562159 -116.205902 269 2875ft 0kts
20-Jun-18 12:48 43.562159 -116.205902 269 2875ft 0kts
20-Jun-18 12:49 43.562159 -116.205902 269 2875ft 0kts
20-Jun-18 12:50 43.561924 -116.205946 139 2875ft 11kts
20-Jun-18 12:51 43.561400 -116.205821 197 2875ft 0kts
20-Jun-18 12:52 43.561514 -116.207868 299 2875ft 17kts
20-Jun-18 12:53 43.563330 -116.213078 295 2875ft 13kts
20-Jun-18 12:54 43.565490 -116.219369 292 2875ft 20kts
20-Jun-18 12:55 43.567937 -116.226561 294 2875ft 20kts
20-Jun-18 12:56 43.570402 -116.233780 294 2875ft 20kts
20-Jun-18 12:57 43.570869 -116.235797 229 2875ft 0kts
20-Jun-18 12:58 43.569592 -116.234956 116 2875ft 21kts
20-Jun-18 12:59 43.568628 -116.228361 30 2875ft 9kts
20-Jun-18 13:00 43.569149 -116.228626 292 2875ft 0kts
20-Jun-18 13:01 43.569149 -116.228626 292 2875ft 0kts
20-Jun-18 13:02 43.569149 -116.228626 292 2875ft 0kts
20-Jun-18 13:03 43.569149 -116.228626 291 2875ft 0kts
20-Jun-18 13:04 43.569557 -116.229910 290 2875ft 9kts
20-Jun-18 13:05 43.569574 -116.230134 248 2875ft 0kts
20-Jun-18 13:06 43.569573 -116.230139 247 2875ft 1kts
20-Jun-18 13:07 43.570791 -116.234884 296 2875ft 22kts
20-Jun-18 13:08 43.570871 -116.235766 232 2875ft 0kts
20-Jun-18 13:09 43.570871 -116.235766 232 2875ft 0kts
20-Jun-18 13:10 43.570871 -116.235766 233 2875ft 0kts
20-Jun-18 13:11 43.562896 -116.215420 115 3255ft 165kts
20-Jun-18 13:12 43.542634 -116.158944 116 6685ft 175kts
20-Jun-18 13:13 43.520113 -116.094240 116 9371ft 195kts
20-Jun-18 13:14 43.496595 -116.025659 116 11716ft 205kts
20-Jun-18 13:15 43.472266 -115.954138 115 13838ft 214kts
20-Jun-18 13:16 43.509851 -115.923183 322 15625ft 223kts
20-Jun-18 13:17 43.540620 -115.995632 269 16006ft 257kts
20-Jun-18 13:18 43.546315 -116.098921 272 16256ft 271kts
20-Jun-18 13:19 43.560248 -116.192900 306 17701ft 257kts
20-Jun-18 13:20 43.609519 -116.259856 311 19178ft 244kts
20-Jun-18 13:21 43.660299 -116.323137 311 19986ft 259kts
20-Jun-18 13:22 43.716996 -116.392788 313 20034ft 287kts
20-Jun-18 13:23 43.777827 -116.467456 313 20112ft 301kts
20-Jun-18 13:24 43.841308 -116.545608 313 20115ft 307kts
20-Jun-18 13:25 43.905331 -116.624682 313 20118ft 310kts
20-Jun-18 13:26 43.968331 -116.702727 312 20122ft 308kts
20-Jun-18 13:27 44.031737 -116.781506 312 20121ft 303kts
20-Jun-18 13:28 44.093182 -116.858079 312 20121ft 293kts
20-Jun-18 13:29 44.152669 -116.932433 312 20117ft 288kts
20-Jun-18 13:30 44.211783 -117.006529 312 20117ft 285kts
20-Jun-18 13:31 44.269578 -117.079170 312 20117ft 284kts
20-Jun-18 13:32 44.327936 -117.152711 312 20117ft 283kts
20-Jun-18 13:33 44.385983 -117.226079 312 20118ft 282kts
20-Jun-18 13:34 44.443034 -117.298392 312 20121ft 282kts
20-Jun-18 13:35 44.500851 -117.371872 312 20126ft 282kts
20-Jun-18 13:36 44.558702 -117.445613 312 20126ft 282kts
20-Jun-18 13:37 44.616359 -117.519308 312 20126ft 282kts
20-Jun-18 13:38 44.674123 -117.593356 312 20127ft 285kts
20-Jun-18 13:39 44.732534 -117.668441 311 20130ft 290kts
20-Jun-18 13:40 44.792454 -117.745680 311 20130ft 293kts
20-Jun-18 13:41 44.852419 -117.823148 311 20130ft 294kts
20-Jun-18 13:42 44.912538 -117.900887 311 20130ft 294kts
20-Jun-18 13:43 44.972635 -117.978828 311 20129ft 294kts
20-Jun-18 13:44 45.032998 -118.057377 312 20026ft 299kts
20-Jun-18 13:45 45.095284 -118.138652 313 19549ft 311kts
20-Jun-18 13:46 45.159091 -118.222110 314 19043ft 316kts
20-Jun-18 13:47 45.223592 -118.306775 314 18535ft 318kts
20-Jun-18 13:48 45.288380 -118.392112 314 18026ft 319kts
20-Jun-18 13:49 45.352826 -118.477271 314 17522ft 320kts
20-Jun-18 13:50 45.417898 -118.563542 314 17014ft 320kts
20-Jun-18 13:51 45.482856 -118.649936 314 16508ft 321kts
20-Jun-18 13:52 45.546193 -118.734461 313 16025ft 321kts
20-Jun-18 13:53 45.610904 -118.821097 313 15441ft 318kts
20-Jun-18 13:54 45.673168 -118.904740 314 14906ft 299kts
20-Jun-18 13:55 45.728357 -118.989536 308 14409ft 289kts
20-Jun-18 13:56 45.779445 -119.075361 308 13913ft 284kts
20-Jun-18 13:57 45.830198 -119.161173 308 13413ft 283kts
20-Jun-18 13:58 45.880907 -119.247213 309 12912ft 282kts
20-Jun-18 13:59 45.923093 -119.319002 309 12350ft 286kts
20-Jun-18 14:00 45.974437 -119.406642 309 11649ft 288kts
20-Jun-18 14:01 46.033043 -119.507030 309 10849ft 288kts
20-Jun-18 14:02 46.083914 -119.594397 308 10121ft 283kts
20-Jun-18 14:03 46.131266 -119.676071 308 9553ft 281kts
20-Jun-18 14:04 46.180035 -119.760439 308 9004ft 280kts
20-Jun-18 14:05 46.229280 -119.845870 308 7996ft 272kts
20-Jun-18 14:06 46.268919 -119.914808 308 7901ft 261kts
20-Jun-18 14:07 46.315110 -119.990912 314 6896ft 247kts
20-Jun-18 14:08 46.364012 -120.058589 314 5892ft 241kts
20-Jun-18 14:09 46.412165 -120.125314 314 5030ft 236kts
20-Jun-18 14:10 46.456382 -120.190873 314 5000ft 227kts
20-Jun-18 14:11 46.488214 -120.272754 294 4469ft 249kts
20-Jun-18 14:12 46.515989 -120.361143 297 3732ft 219kts
20-Jun-18 14:13 46.537082 -120.422607 295 2635ft 145kts
20-Jun-18 14:14 46.553577 -120.485135 290 1832ft 181kts
20-Jun-18 14:15 46.566558 -120.535597 293 1103ft 82kts
20-Jun-18 14:16 46.569230 -120.542101 2 1103ft 4kts
20-Jun-18 14:17 46.570521 -120.542743 89 1103ft 0kts

Navigation Log

Ident Type
Flight plan parsing failed, navigation log unavailable